Time;durP1;ratioP1;P1;durP2;ratioP2;P2;SDS_P1;SDS_P2;PMS_P1;PMS_P2;Temp;Humidity;BMP_temperature;BMP_pressure;BME280_temperature;BME280_humidity;BME280_pressure;Samples;Min_cycle;Max_cycle;Signal;HPM_P1;HPM_P2
2023/05/08 00:00:25;;;;;;;;;;;;;;;15.25;49.77;99918.31;5092012;28;19916;-36
2023/05/08 00:02:50;;;;;;;;;;;;;;;15.46;50.13;99916.13;5091418;28;19916;-36
2023/05/08 00:05:16;;;;;;;;;;;;;;;15.55;48.82;99917.41;5091471;28;19919;-36
2023/05/08 00:07:41;;;;;;;;;;;;;;;15.44;48.47;99904.81;5090729;28;19919;-37
2023/05/08 00:10:07;;;;;;;;;;;;;;;15.63;48.85;99911.72;5091474;28;19986;-36
2023/05/08 00:12:32;;;;;;;;;;;;;;;15.71;48.68;99915.91;5091382;28;19965;-37
2023/05/08 00:14:58;;;;;;;;;;;;;;;15.43;48.63;99911.22;5091342;28;19916;-36
2023/05/08 00:17:23;;;;;;;;;;;;;;;15.75;48.20;99916.31;5091635;28;20006;-36
2023/05/08 00:19:49;;;;;;;;;;;;;;;15.90;47.37;99919.31;5091539;28;19924;-37
2023/05/08 00:22:14;;;;;;;;;;;;;;;15.52;48.08;99917.88;5091465;28;19912;-36
2023/05/08 00:24:39;;;;;;;;;;;;;;;15.61;48.15;99921.88;5091624;28;19912;-37
2023/05/08 00:27:05;;;;;;;;;;;;;;;15.71;48.38;99902.50;5091347;28;20400;-36
2023/05/08 00:29:30;;;;;;;;;;;;;;;15.65;48.58;99911.50;5091444;28;20002;-36
2023/05/08 00:31:56;;;;;;;;;;;;;;;15.55;48.93;99901.31;5090145;28;19912;-37
2023/05/08 00:34:21;;;;;;;;;;;;;;;15.54;48.85;99912.28;5091064;28;20335;-37
2023/05/08 00:36:46;;;;;;;;;;;;;;;15.52;49.25;99911.72;5091510;28;19977;-37
2023/05/08 00:39:12;;;;;;;;;;;;;;;15.56;49.49;99905.63;5091394;28;19969;-37
2023/05/08 00:41:37;;;;;;;;;;;;;;;15.56;49.24;99905.63;5091338;28;20366;-37
2023/05/08 00:44:02;;;;;;;;;;;;;;;15.56;49.32;99910.19;5090396;28;19916;-36
2023/05/08 00:46:28;;;;;;;;;;;;;;;15.64;49.74;99909.84;5091169;28;19924;-37
2023/05/08 00:48:53;;;;;;;;;;;;;;;15.68;49.25;99920.94;5091259;28;19920;-36
2023/05/08 00:51:19;;;;;;;;;;;;;;;15.71;48.66;99915.09;5091202;28;19924;-37
2023/05/08 00:53:45;;;;;;;;;;;;;;;15.74;48.68;99918.16;5091001;28;19959;-37
2023/05/08 00:56:12;;;;;;;;;;;;;;;15.64;48.87;99918.69;5091204;28;19913;-36
2023/05/08 00:58:38;;;;;;;;;;;;;;;15.51;49.61;99923.47;5091442;28;19912;-37
2023/05/08 01:01:04;;;;;;;;;;;;;;;15.57;49.61;99923.38;5090517;28;19954;-36
2023/05/08 01:03:29;;;;;;;;;;;;;;;15.51;49.36;99931.53;5091541;28;19948;-36
2023/05/08 01:05:55;;;;;;;;;;;;;;;15.56;49.86;99931.66;5091411;28;20299;-36
2023/05/08 01:08:20;;;;;;;;;;;;;;;15.43;48.85;99936.16;5091189;28;19919;-37
2023/05/08 01:10:53;;;;;;;;;;;;;;;15.42;49.63;99937.22;5091232;28;20380;-36
2023/05/08 01:13:39;;;;;;;;;;;;;;;15.26;49.84;99935.19;5090854;28;19912;-36
2023/05/08 01:16:14;;;;;;;;;;;;;;;15.38;48.84;99943.25;5091192;28;19935;-37
2023/05/08 01:18:46;;;;;;;;;;;;;;;15.49;49.14;99939.78;5092232;28;19912;-36
2023/05/08 01:21:31;;;;;;;;;;;;;;;15.39;49.27;99945.72;5094296;28;19935;-36
2023/05/08 01:24:15;;;;;;;;;;;;;;;15.35;48.65;99920.41;5094258;28;19919;-36
2023/05/08 01:26:55;;;;;;;;;;;;;;;15.31;49.20;99943.38;5094246;28;19924;-36
2023/05/08 01:29:29;;;;;;;;;;;;;;;15.39;49.27;99945.72;5092237;28;20311;-36
2023/05/08 01:32:10;;;;;;;;;;;;;;;15.23;49.65;99941.84;5094449;28;19912;-37
2023/05/08 01:34:39;;;;;;;;;;;;;;;15.29;48.97;99940.13;5094173;28;19913;-36
2023/05/08 01:37:11;;;;;;;;;;;;;;;15.22;49.35;99937.53;5094221;28;19920;-36
2023/05/08 01:39:55;;;;;;;;;;;;;;;15.08;49.37;99941.47;5094206;28;19977;-36
2023/05/08 01:42:20;;;;;;;;;;;;;;;15.19;49.33;99940.69;5094318;28;19912;-36
2023/05/08 01:44:50;;;;;;;;;;;;;;;15.23;48.62;99943.69;5094132;28;19912;-36
2023/05/08 01:47:17;;;;;;;;;;;;;;;15.06;49.58;99940.88;5094415;28;19919;-36
2023/05/08 01:49:44;;;;;;;;;;;;;;;14.80;50.21;99937.50;5094384;28;20021;-36
2023/05/08 01:52:17;;;;;;;;;;;;;;;14.96;49.75;99943.25;5093898;28;19916;-37
2023/05/08 01:54:45;;;;;;;;;;;;;;;15.08;49.73;99933.41;5093841;28;19958;-37
2023/05/08 01:57:12;;;;;;;;;;;;;;;15.10;49.62;99938.53;5094095;28;19912;-37
2023/05/08 01:59:37;;;;;;;;;;;;;;;15.10;48.88;99935.84;5094026;28;19924;-36
2023/05/08 02:02:04;;;;;;;;;;;;;;;15.15;49.53;99941.34;5093743;28;19912;-36
2023/05/08 02:04:30;;;;;;;;;;;;;;;15.00;48.57;99941.75;5093774;28;19947;-37
2023/05/08 02:06:57;;;;;;;;;;;;;;;15.09;49.83;99940.41;5093789;28;19912;-37
2023/05/08 02:09:24;;;;;;;;;;;;;;;15.32;49.11;99938.81;5093435;28;20372;-36
2023/05/08 02:11:50;;;;;;;;;;;;;;;15.30;48.42;99935.56;5093688;28;19912;-36
2023/05/08 02:14:18;;;;;;;;;;;;;;;15.21;48.42;99938.59;5093562;28;20343;-36
2023/05/08 02:16:43;;;;;;;;;;;;;;;15.15;48.37;99936.78;5093593;28;19912;-37
2023/05/08 02:19:10;;;;;;;;;;;;;;;15.22;48.33;99931.34;5093453;28;19919;-37
2023/05/08 02:21:36;;;;;;;;;;;;;;;15.21;48.50;99933.22;5093560;28;19923;-36
2023/05/08 02:24:02;;;;;;;;;;;;;;;15.17;48.77;99933.88;5093362;28;19916;-36
2023/05/08 02:26:27;;;;;;;;;;;;;;;14.92;48.97;99939.41;5093341;28;20003;-36
2023/05/08 02:28:55;;;;;;;;;;;;;;;14.90;49.62;99936.13;5093080;28;20295;-37
2023/05/08 02:31:21;;;;;;;;;;;;;;;14.89;48.92;99940.69;5092546;28;19916;-37
2023/05/08 02:33:48;;;;;;;;;;;;;;;14.92;49.79;99942.09;5092740;28;19922;-36
2023/05/08 02:36:16;;;;;;;;;;;;;;;14.97;49.14;99937.69;5093181;28;19916;-37
2023/05/08 02:38:43;;;;;;;;;;;;;;;14.99;48.58;99943.63;5092778;28;20233;-36
2023/05/08 02:41:09;;;;;;;;;;;;;;;14.88;49.07;99948.94;5092632;28;19955;-36
2023/05/08 02:43:34;;;;;;;;;;;;;;;14.93;49.42;99943.72;5092961;28;19919;-36
2023/05/08 02:46:03;;;;;;;;;;;;;;;14.95;48.98;99945.13;5092958;28;19912;-37
2023/05/08 02:48:31;;;;;;;;;;;;;;;14.92;48.53;99950.13;5092895;28;19964;-37
2023/05/08 02:51:03;;;;;;;;;;;;;;;14.99;48.18;99948.19;5093076;28;20296;-36
2023/05/08 02:53:34;;;;;;;;;;;;;;;14.85;48.52;99950.22;5092703;28;20240;-37
2023/05/08 02:56:10;;;;;;;;;;;;;;;14.82;48.47;99948.00;5092243;28;20330;-36
2023/05/08 02:58:44;;;;;;;;;;;;;;;14.82;48.31;99948.78;5092709;28;20287;-36
2023/05/08 03:01:23;;;;;;;;;;;;;;;14.55;48.34;99947.47;5092870;28;19916;-37
2023/05/08 03:03:55;;;;;;;;;;;;;;;14.64;48.75;99946.97;5092582;28;20011;-36
2023/05/08 03:06:22;;;;;;;;;;;;;;;14.69;48.86;99940.94;5092224;28;19919;-37
2023/05/08 03:08:50;;;;;;;;;;;;;;;14.77;48.80;99943.28;5092528;28;19923;-37
2023/05/08 03:11:18;;;;;;;;;;;;;;;14.67;48.83;99948.38;5092054;28;20292;-37
2023/05/08 03:13:45;;;;;;;;;;;;;;;14.74;48.65;99951.78;5092594;28;19948;-37
2023/05/08 03:16:14;;;;;;;;;;;;;;;14.81;48.89;99946.34;5092327;28;19916;-37
2023/05/08 03:18:48;;;;;;;;;;;;;;;14.67;48.63;99961.78;5092258;28;19912;-36
2023/05/08 03:21:16;;;;;;;;;;;;;;;14.53;49.02;99953.06;5091934;28;19916;-37
2023/05/08 03:23:42;;;;;;;;;;;;;;;14.58;49.14;99958.59;5092741;28;20007;-37
2023/05/08 03:26:08;;;;;;;;;;;;;;;14.71;49.09;99964.81;5092176;28;20023;-36
2023/05/08 03:28:34;;;;;;;;;;;;;;;14.88;48.92;99960.47;5092274;28;20049;-37
2023/05/08 03:31:00;;;;;;;;;;;;;;;15.00;48.11;99972.06;5090836;28;19998;-37
2023/05/08 03:33:27;;;;;;;;;;;;;;;15.04;48.31;99975.94;5091978;28;20355;-36
2023/05/08 03:35:52;;;;;;;;;;;;;;;15.07;48.24;99969.28;5092057;28;19916;-37
2023/05/08 03:38:18;;;;;;;;;;;;;;;15.17;47.37;99971.41;5092079;28;20005;-37
2023/05/08 03:40:43;;;;;;;;;;;;;;;15.18;47.70;99965.03;5091902;28;19916;-36
2023/05/08 03:43:10;;;;;;;;;;;;;;;15.32;47.93;99971.81;5091436;28;19911;-37
2023/05/08 03:45:37;;;;;;;;;;;;;;;15.20;48.43;99974.47;5092033;28;19954;-36
2023/05/08 03:48:06;;;;;;;;;;;;;;;15.28;48.79;99972.50;5091775;28;20389;-37
2023/05/08 03:50:33;;;;;;;;;;;;;;;15.55;48.81;99978.28;5091916;28;20398;-37
2023/05/08 03:52:58;;;;;;;;;;;;;;;15.64;48.58;99980.41;5091699;28;19976;-36
2023/05/08 03:55:24;;;;;;;;;;;;;;;15.87;47.44;99984.19;5092130;28;20007;-36
2023/05/08 03:57:56;;;;;;;;;;;;;;;16.00;47.08;99975.91;5091616;28;19943;-36
2023/05/08 04:00:27;;;;;;;;;;;;;;;16.10;46.63;99971.81;5091630;28;19935;-37
2023/05/08 04:03:04;;;;;;;;;;;;;;;16.12;46.76;99985.81;5091665;28;20013;-37
2023/05/08 04:05:37;;;;;;;;;;;;;;;16.11;47.06;99992.25;5091861;28;19920;-37
2023/05/08 04:08:14;;;;;;;;;;;;;;;16.37;47.41;99989.09;5091609;28;19912;-36
2023/05/08 04:10:46;;;;;;;;;;;;;;;16.60;46.70;99982.84;5091616;28;19918;-37
2023/05/08 04:13:13;;;;;;;;;;;;;;;17.11;46.79;99987.63;5091729;28;20324;-37
2023/05/08 04:15:42;;;;;;;;;;;;;;;17.72;44.95;99999.44;5091851;28;19912;-37
2023/05/08 04:18:09;;;;;;;;;;;;;;;18.15;43.45;99989.09;5091742;28;19959;-37
2023/05/08 04:20:37;;;;;;;;;;;;;;;18.40;41.86;99993.22;5091236;28;19923;-37
2023/05/08 04:23:03;;;;;;;;;;;;;;;18.86;41.38;99993.81;5091918;28;19918;-37
2023/05/08 04:25:29;;;;;;;;;;;;;;;19.17;40.04;99999.53;5091119;28;20256;-37
2023/05/08 04:27:56;;;;;;;;;;;;;;;19.40;39.13;99990.31;5090501;28;19974;-37
2023/05/08 04:30:21;;;;;;;;;;;;;;;19.69;38.01;99991.66;5090464;28;20002;-36
2023/05/08 04:32:48;;;;;;;;;;;;;;;19.74;37.06;99996.31;5090410;28;19998;-37
2023/05/08 04:35:13;;;;;;;;;;;;;;;19.97;36.66;99994.31;5089929;28;19912;-37
2023/05/08 04:37:40;;;;;;;;;;;;;;;20.17;36.56;99989.06;5090626;28;19923;-37
2023/05/08 04:40:05;;;;;;;;;;;;;;;20.66;35.28;99985.28;5090622;28;19916;-37
2023/05/08 04:42:32;;;;;;;;;;;;;;;20.85;35.05;99983.72;5090732;28;19970;-36
2023/05/08 04:44:57;;;;;;;;;;;;;;;21.33;34.10;99991.66;5090572;28;19928;-37
2023/05/08 04:47:22;;;;;;;;;;;;;;;21.61;33.72;99995.78;5090542;28;19912;-37
2023/05/08 04:49:48;;;;;;;;;;;;;;;21.03;34.84;99993.22;5090288;28;19916;-37
2023/05/08 04:52:13;;;;;;;;;;;;;;;21.61;33.41;99987.66;5089552;28;19916;-37
2023/05/08 04:54:39;;;;;;;;;;;;;;;21.78;32.29;99998.22;5093084;28;19923;-37
2023/05/08 04:57:06;;;;;;;;;;;;;;;22.30;31.69;99992.75;5093346;28;20737;-37
2023/05/08 04:59:31;;;;;;;;;;;;;;;22.33;31.39;99989.47;5093459;28;19912;-37
2023/05/08 05:01:57;;;;;;;;;;;;;;;22.69;30.98;99976.59;5103700;28;19912;-37
2023/05/08 05:04:22;;;;;;;;;;;;;;;22.57;31.53;99976.13;5106013;28;19919;-37
2023/05/08 05:06:48;;;;;;;;;;;;;;;22.96;30.93;99973.50;5098890;28;19969;-37
2023/05/08 05:09:13;;;;;;;;;;;;;;;23.02;29.89;99977.78;5110283;28;19922;-37
2023/05/08 05:11:38;;;;;;;;;;;;;;;22.12;30.92;99978.66;5098923;28;19915;-37
2023/05/08 05:14:03;;;;;;;;;;;;;;;22.51;31.12;99983.47;5105792;28;19908;-37
2023/05/08 05:16:29;;;;;;;;;;;;;;;22.19;31.81;99981.91;5094150;28;19993;-37
2023/05/08 05:18:54;;;;;;;;;;;;;;;22.77;31.58;99991.47;5093907;28;19915;-37
2023/05/08 05:21:20;;;;;;;;;;;;;;;23.13;30.05;99984.00;5093785;28;20317;-37
2023/05/08 05:23:45;;;;;;;;;;;;;;;23.71;29.83;99979.78;5093777;28;19912;-37
2023/05/08 05:26:10;;;;;;;;;;;;;;;24.03;29.02;99986.56;5093901;28;19989;-37
2023/05/08 05:28:36;;;;;;;;;;;;;;;23.64;28.94;99982.00;5091829;28;19916;-37
2023/05/08 05:31:01;;;;;;;;;;;;;;;23.48;28.73;99971.28;5093409;28;19991;-36
2023/05/08 05:33:27;;;;;;;;;;;;;;;22.37;30.49;99975.13;5093437;28;20293;-35
2023/05/08 05:35:52;;;;;;;;;;;;;;;22.44;30.38;99972.91;5093327;28;19919;-36
2023/05/08 05:38:17;;;;;;;;;;;;;;;23.18;29.75;99961.44;5093220;28;19919;-37
2023/05/08 05:40:42;;;;;;;;;;;;;;;23.46;29.13;99968.03;5093008;28;19916;-37
2023/05/08 05:43:08;;;;;;;;;;;;;;;22.98;29.59;99956.91;5093418;28;19923;-37
2023/05/08 05:45:33;;;;;;;;;;;;;;;23.92;28.60;99970.38;5097519;28;19912;-37
2023/05/08 05:47:59;;;;;;;;;;;;;;;23.76;29.11;99961.53;5092885;28;19920;-37
2023/05/08 05:50:26;;;;;;;;;;;;;;;24.11;28.24;99962.28;5092805;28;20035;-37
2023/05/08 05:52:51;;;;;;;;;;;;;;;24.15;29.16;99963.31;5092959;28;19912;-36
2023/05/08 05:55:16;;;;;;;;;;;;;;;24.74;28.09;99950.41;5093425;28;19969;-36
2023/05/08 05:57:41;;;;;;;;;;;;;;;25.13;28.14;99953.94;5093237;28;19916;-35
2023/05/08 06:00:07;;;;;;;;;;;;;;;25.14;28.32;99950.91;5092654;28;19916;-37
2023/05/08 06:02:34;;;;;;;;;;;;;;;24.19;28.25;99947.25;5092989;28;20395;-37
2023/05/08 06:04:59;;;;;;;;;;;;;;;23.58;29.08;99941.31;5091441;28;20424;-37
2023/05/08 06:07:25;;;;;;;;;;;;;;;23.98;28.61;99946.66;5093004;28;19912;-37
2023/05/08 06:09:52;;;;;;;;;;;;;;;24.29;28.90;99941.69;5093208;28;19944;-36
2023/05/08 06:12:17;;;;;;;;;;;;;;;24.47;28.62;99951.00;5090711;28;19930;-36
2023/05/08 06:14:43;;;;;;;;;;;;;;;24.70;27.24;99954.81;5092548;28;19928;-36
2023/05/08 06:17:08;;;;;;;;;;;;;;;24.69;26.95;99949.66;5092551;28;19916;-36
2023/05/08 06:19:33;;;;;;;;;;;;;;;25.17;26.57;99944.91;5092555;28;19915;-37
2023/05/08 06:21:58;;;;;;;;;;;;;;;25.11;27.36;99945.25;5092349;28;19920;-36
2023/05/08 06:24:24;;;;;;;;;;;;;;;25.33;27.65;99944.69;5092123;28;20010;-37
2023/05/08 06:26:49;;;;;;;;;;;;;;;25.27;27.23;99943.97;5092206;28;19926;-36
2023/05/08 06:29:14;;;;;;;;;;;;;;;25.66;26.70;99939.22;5092051;28;20416;-37
2023/05/08 06:31:40;;;;;;;;;;;;;;;25.25;27.07;99939.94;5091940;28;19990;-36
2023/05/08 06:34:05;;;;;;;;;;;;;;;25.92;26.34;99945.06;5088867;28;20384;-36
2023/05/08 06:36:31;;;;;;;;;;;;;;;26.31;25.55;99949.22;5071941;28;19920;-36
2023/05/08 06:38:56;;;;;;;;;;;;;;;26.81;25.14;99945.75;5071874;28;19919;-36
2023/05/08 06:41:21;;;;;;;;;;;;;;;26.92;25.53;99934.31;5071362;28;20364;-37
2023/05/08 06:43:47;;;;;;;;;;;;;;;25.97;26.23;99935.97;5070744;28;19928;-37
2023/05/08 06:46:12;;;;;;;;;;;;;;;26.01;25.95;99912.44;5111400;28;19947;-37
2023/05/08 06:48:37;;;;;;;;;;;;;;;26.26;26.25;99927.50;5112505;28;19962;-36
2023/05/08 06:51:03;;;;;;;;;;;;;;;27.31;25.23;99926.59;5112262;28;20383;-37
2023/05/08 06:53:28;;;;;;;;;;;;;;;27.56;24.86;99930.59;5112006;28;19916;-37
2023/05/08 06:55:54;;;;;;;;;;;;;;;28.06;24.45;99916.72;5111953;28;20005;-35
2023/05/08 06:58:19;;;;;;;;;;;;;;;27.56;24.57;99910.66;5111968;28;19911;-36
2023/05/08 07:00:44;;;;;;;;;;;;;;;26.49;25.87;99918.28;5111686;28;19959;-37
2023/05/08 07:03:10;;;;;;;;;;;;;;;26.13;26.53;99920.94;5112509;28;20020;-36
2023/05/08 07:05:35;;;;;;;;;;;;;;;25.65;27.16;99921.28;5111610;28;19912;-36
2023/05/08 07:08:00;;;;;;;;;;;;;;;26.00;27.01;99916.28;5111596;28;20264;-37
2023/05/08 07:10:26;;;;;;;;;;;;;;;25.91;26.98;99914.28;5094410;28;19984;-36
2023/05/08 07:12:51;;;;;;;;;;;;;;;26.65;26.25;99912.53;5091514;28;20007;-37
2023/05/08 07:15:17;;;;;;;;;;;;;;;26.34;26.45;99902.25;5091237;28;19992;-37
2023/05/08 07:17:42;;;;;;;;;;;;;;;25.90;26.92;99909.09;5081458;28;19916;-38
2023/05/08 07:20:07;;;;;;;;;;;;;;;26.02;33.34;99914.06;5087249;28;20018;-37
2023/05/08 07:22:33;;;;;;;;;;;;;;;26.61;26.82;99906.06;5087170;28;20294;-37
2023/05/08 07:24:58;;;;;;;;;;;;;;;27.44;25.87;99898.38;5090879;28;19919;-36
2023/05/08 07:27:23;;;;;;;;;;;;;;;27.95;25.04;99900.91;5090667;28;19924;-37
2023/05/08 07:29:49;;;;;;;;;;;;;;;28.40;25.08;99898.78;5091230;28;19920;-37
2023/05/08 07:32:14;;;;;;;;;;;;;;;26.75;26.53;99906.84;5091028;28;19912;-37
2023/05/08 07:34:39;;;;;;;;;;;;;;;27.54;25.98;99899.25;5090819;28;20322;-37
2023/05/08 07:37:05;;;;;;;;;;;;;;;28.43;24.79;99897.34;5091263;28;20308;-37
2023/05/08 07:39:30;;;;;;;;;;;;;;;29.05;24.33;99902.56;5087909;28;19924;-37
2023/05/08 07:41:55;;;;;;;;;;;;;;;29.86;23.82;99902.91;5091304;28;19927;-37
2023/05/08 07:44:21;;;;;;;;;;;;;;;30.65;23.11;99903.25;5092063;28;19912;-37
2023/05/08 07:46:46;;;;;;;;;;;;;;;30.46;23.45;99900.97;5091322;28;19945;-37
2023/05/08 07:49:11;;;;;;;;;;;;;;;30.73;22.72;99899.66;5090217;28;20364;-37
2023/05/08 07:51:37;;;;;;;;;;;;;;;30.53;23.17;99894.97;5090815;28;19923;-37
2023/05/08 07:54:02;;;;;;;;;;;;;;;30.64;22.51;99890.69;5089459;28;19935;-37
2023/05/08 07:56:27;;;;;;;;;;;;;;;29.82;24.11;99893.72;5090645;28;20023;-37
2023/05/08 07:58:53;;;;;;;;;;;;;;;30.39;24.04;99890.53;5089972;28;19995;-37
2023/05/08 08:01:18;;;;;;;;;;;;;;;30.53;22.47;99884.00;5090341;28;20097;-42
2023/05/08 08:03:46;;;;;;;;;;;;;;;30.67;22.87;99881.75;5090978;28;20237;-43
2023/05/08 08:06:12;;;;;;;;;;;;;;;29.49;24.58;99869.59;5089636;28;20109;-42
2023/05/08 08:08:38;;;;;;;;;;;;;;;29.62;24.44;99873.28;5089540;28;20411;-46
2023/05/08 08:11:03;;;;;;;;;;;;;;;30.11;23.53;99879.22;5088853;28;20310;-42
2023/05/08 08:13:28;;;;;;;;;;;;;;;30.85;23.07;99870.66;5090504;28;20343;-42
2023/05/08 08:15:54;;;;;;;;;;;;;;;31.41;22.86;99871.06;5095175;28;19912;-42
2023/05/08 08:18:19;;;;;;;;;;;;;;;30.75;23.34;99869.94;5092247;28;19997;-42
2023/05/08 08:20:44;;;;;;;;;;;;;;;31.03;23.05;99863.88;5091555;28;19946;-43
2023/05/08 08:23:10;;;;;;;;;;;;;;;31.19;22.58;99864.06;5094479;28;19916;-42
2023/05/08 08:25:35;;;;;;;;;;;;;;;30.60;24.11;99863.09;5085868;28;19917;-41
2023/05/08 08:28:00;;;;;;;;;;;;;;;29.68;24.25;99869.22;5088384;28;20295;-42
2023/05/08 08:30:26;;;;;;;;;;;;;;;30.15;24.08;99863.69;5093029;28;19920;-43
2023/05/08 08:32:51;;;;;;;;;;;;;;;30.57;23.94;99857.47;5093528;28;19965;-42
2023/05/08 08:35:16;;;;;;;;;;;;;;;29.76;24.33;99845.69;5093513;28;19962;-41
2023/05/08 08:37:42;;;;;;;;;;;;;;;29.04;24.82;99848.09;5093312;28;19912;-42
2023/05/08 08:40:07;;;;;;;;;;;;;;;28.75;24.89;99846.84;5093420;28;20392;-42
2023/05/08 08:42:32;;;;;;;;;;;;;;;28.58;25.42;99841.38;5092969;28;19916;-42
2023/05/08 08:44:59;;;;;;;;;;;;;;;29.20;25.48;99845.66;5103025;28;19911;-42
2023/05/08 08:47:27;;;;;;;;;;;;;;;29.14;25.12;99850.50;5106507;28;19923;-43
2023/05/08 08:49:53;;;;;;;;;;;;;;;27.84;26.86;99846.47;5093045;28;20387;-43
2023/05/08 08:52:21;;;;;;;;;;;;;;;28.23;26.51;99835.81;5092651;28;20336;-43
2023/05/08 08:54:48;;;;;;;;;;;;;;;28.94;25.85;99837.47;5093062;28;19912;-43
2023/05/08 08:57:13;;;;;;;;;;;;;;;29.94;25.14;99838.16;5092880;28;19919;-42
2023/05/08 08:59:39;;;;;;;;;;;;;;;29.77;24.40;99842.59;5092885;28;19916;-45
2023/05/08 09:02:07;;;;;;;;;;;;;;;29.24;24.96;99827.44;5092998;28;19961;-42
2023/05/08 09:04:33;;;;;;;;;;;;;;;29.53;26.05;99825.91;5092198;28;20340;-43
2023/05/08 09:06:58;;;;;;;;;;;;;;;29.43;24.94;99833.38;5091038;28;20003;-41
2023/05/08 09:09:24;;;;;;;;;;;;;;;29.41;25.04;99832.88;5092261;28;19912;-41
2023/05/08 09:11:51;;;;;;;;;;;;;;;28.61;25.71;99819.63;5092600;28;19916;-44
2023/05/08 09:14:16;;;;;;;;;;;;;;;28.76;25.74;99815.56;5092787;28;20333;-41
2023/05/08 09:16:41;;;;;;;;;;;;;;;29.06;25.39;99815.72;5091576;28;19912;-45
2023/05/08 09:19:07;;;;;;;;;;;;;;;28.78;26.44;99807.06;5092462;28;19912;-42
2023/05/08 09:21:33;;;;;;;;;;;;;;;29.10;26.24;99799.44;5092216;28;20000;-41
2023/05/08 09:23:59;;;;;;;;;;;;;;;29.43;26.18;99792.25;5092200;28;20398;-40
2023/05/08 09:26:31;;;;;;;;;;;;;;;29.89;26.05;99789.81;5092377;28;19988;-42
2023/05/08 09:29:14;;;;;;;;;;;;;;;30.14;25.50;99788.00;5092980;28;19923;-42
2023/05/08 09:31:41;;;;;;;;;;;;;;;30.39;24.55;99780.75;5092491;28;19916;-42
2023/05/08 09:34:07;;;;;;;;;;;;;;;30.22;25.23;99780.84;5091774;28;19923;-43
2023/05/08 09:36:33;;;;;;;;;;;;;;;30.53;25.43;99766.72;5092146;28;19916;-41
2023/05/08 09:38:59;;;;;;;;;;;;;;;31.11;24.41;99758.59;5091114;28;20101;-41
2023/05/08 09:41:25;;;;;;;;;;;;;;;31.75;24.96;99761.81;5089552;28;20015;-42
2023/05/08 09:44:01;;;;;;;;;;;;;;;31.47;23.87;99761.72;5089512;28;19915;-42
2023/05/08 09:46:26;;;;;;;;;;;;;;;30.34;24.72;99764.47;5110813;28;20241;-41
2023/05/08 09:48:53;;;;;;;;;;;;;;;29.69;25.32;99760.38;5093005;28;19974;-41
2023/05/08 09:51:18;;;;;;;;;;;;;;;29.66;25.51;99755.53;5091431;28;19912;-42
2023/05/08 09:53:44;;;;;;;;;;;;;;;28.42;27.62;99743.28;5091982;28;19961;-41
2023/05/08 09:56:09;;;;;;;;;;;;;;;28.62;27.17;99749.28;5090885;28;20338;-42
2023/05/08 09:58:38;;;;;;;;;;;;;;;29.24;26.73;99748.00;5091547;28;19924;-44
2023/05/08 10:01:03;;;;;;;;;;;;;;;29.45;26.51;99739.84;5091308;28;20350;-42
2023/05/08 10:03:48;;;;;;;;;;;;;;;29.92;25.83;99736.22;5091032;28;19912;-43
2023/05/08 10:06:13;;;;;;;;;;;;;;;30.10;25.51;99728.66;5091301;28;20379;-43
2023/05/08 10:08:40;;;;;;;;;;;;;;;30.08;25.95;99728.19;5091085;28;20272;-42
2023/05/08 10:11:15;;;;;;;;;;;;;;;30.16;24.87;99728.13;5089381;28;19916;-44
2023/05/08 10:13:40;;;;;;;;;;;;;;;29.26;26.50;99729.28;5091167;28;20324;-43
2023/05/08 10:16:10;;;;;;;;;;;;;;;29.75;25.81;99726.16;5091549;28;19922;-43
2023/05/08 10:18:38;;;;;;;;;;;;;;;30.11;26.01;99731.06;5091604;28;19912;-42
2023/05/08 10:21:05;;;;;;;;;;;;;;;29.98;25.64;99721.16;5091625;28;19916;-42
2023/05/08 10:23:32;;;;;;;;;;;;;;;30.10;26.25;99718.50;5091525;28;19913;-42
2023/05/08 10:26:01;;;;;;;;;;;;;;;30.27;25.49;99712.03;5091290;28;19955;-42
2023/05/08 10:28:39;;;;;;;;;;;;;;;30.19;25.34;99710.97;5089887;28;20022;-43
2023/05/08 10:31:06;;;;;;;;;;;;;;;30.27;26.42;99706.53;5091004;28;19920;-42
2023/05/08 10:33:32;;;;;;;;;;;;;;;31.05;25.60;99695.94;5090905;28;19912;-43
2023/05/08 10:35:59;;;;;;;;;;;;;;;30.09;26.29;99694.94;5091102;28;19973;-44
2023/05/08 10:38:24;;;;;;;;;;;;;;;29.95;26.22;99697.13;5090855;28;20454;-41
2023/05/08 10:40:52;;;;;;;;;;;;;;;29.41;27.11;99687.63;5090815;28;19935;-43
2023/05/08 10:43:18;;;;;;;;;;;;;;;29.62;26.91;99690.41;5090947;28;19939;-41
2023/05/08 10:45:43;;;;;;;;;;;;;;;28.59;29.42;99690.47;5090887;28;20284;-43
2023/05/08 10:48:39;;;;;;;;;;;;;;;29.45;27.45;99685.03;5090615;28;20201;-43
2023/05/08 10:51:13;;;;;;;;;;;;;;;29.58;27.45;99680.44;5080773;28;19966;-42
2023/05/08 10:53:45;;;;;;;;;;;;;;;28.85;28.21;99687.69;5088369;28;19924;-42
2023/05/08 10:56:10;;;;;;;;;;;;;;;30.01;26.59;99680.16;5090180;28;19920;-46
2023/05/08 10:58:37;;;;;;;;;;;;;;;30.18;26.17;99681.16;5090416;28;19912;-44
2023/05/08 11:01:06;;;;;;;;;;;;;;;31.18;25.80;99678.31;5090515;28;19917;-41
2023/05/08 11:03:31;;;;;;;;;;;;;;;32.08;24.55;99676.38;5091177;28;19916;-44
2023/05/08 11:05:57;;;;;;;;;;;;;;;32.43;23.97;99677.72;5090981;28;19912;-43
2023/05/08 11:08:24;;;;;;;;;;;;;;;30.77;25.46;99671.84;5091254;28;19919;-43
2023/05/08 11:10:58;;;;;;;;;;;;;;;30.89;25.30;99684.81;5090970;28;19965;-42
2023/05/08 11:13:28;;;;;;;;;;;;;;;31.17;25.76;99677.53;5091074;28;20295;-42
2023/05/08 11:15:53;;;;;;;;;;;;;;;30.36;26.59;99676.31;5090998;28;19913;-41
2023/05/08 11:18:18;;;;;;;;;;;;;;;30.89;26.04;99669.13;5090351;28;20072;-45
2023/05/08 11:21:05;;;;;;;;;;;;;;;31.87;24.65;99664.72;5090555;28;20226;-41
2023/05/08 11:23:37;;;;;;;;;;;;;;;32.46;24.39;99666.81;5089528;28;19915;-43
2023/05/08 11:26:03;;;;;;;;;;;;;;;30.18;26.72;99656.44;5090317;28;19993;-43
2023/05/08 11:28:35;;;;;;;;;;;;;;;30.38;27.19;99657.56;5090111;28;19916;-42
2023/05/08 11:31:01;;;;;;;;;;;;;;;30.10;27.91;99655.41;5088208;28;19920;-43
2023/05/08 11:33:31;;;;;;;;;;;;;;;31.74;25.63;99656.50;5087568;28;20374;-43
2023/05/08 11:35:57;;;;;;;;;;;;;;;32.90;24.03;99654.94;5084435;28;19934;-43
2023/05/08 11:38:30;;;;;;;;;;;;;;;32.80;23.35;99649.97;5089764;28;20376;-40
2023/05/08 11:40:58;;;;;;;;;;;;;;;31.26;24.97;99646.34;5090014;28;19916;-42
2023/05/08 11:43:32;;;;;;;;;;;;;;;31.74;24.63;99642.75;5089603;28;19923;-41
2023/05/08 11:45:59;;;;;;;;;;;;;;;30.51;26.03;99641.94;5108321;28;19912;-42
2023/05/08 11:48:24;;;;;;;;;;;;;;;29.83;27.21;99640.28;5110248;28;20199;-42
2023/05/08 11:50:50;;;;;;;;;;;;;;;30.53;26.56;99636.91;5109192;28;20010;-42
2023/05/08 11:53:15;;;;;;;;;;;;;;;31.47;26.08;99635.25;5107938;28;19995;-45
2023/05/08 11:55:41;;;;;;;;;;;;;;;31.18;25.61;99634.34;5109298;28;19915;-42
2023/05/08 11:58:12;;;;;;;;;;;;;;;31.05;25.72;99635.50;5109162;28;20386;-42
2023/05/08 12:00:43;;;;;;;;;;;;;;;30.52;26.06;99630.63;5108706;28;19920;-42
2023/05/08 12:03:11;;;;;;;;;;;;;;;31.08;26.72;99627.38;5108732;28;20021;-43
2023/05/08 12:05:36;;;;;;;;;;;;;;;32.07;24.85;99619.72;5109080;28;20334;-42
2023/05/08 12:08:03;;;;;;;;;;;;;;;32.65;24.54;99610.25;5109367;28;19987;-43
2023/05/08 12:10:28;;;;;;;;;;;;;;;32.30;24.45;99608.94;5109439;28;19935;-42
2023/05/08 12:12:53;;;;;;;;;;;;;;;32.51;24.61;99610.66;5109319;28;20380;-40
2023/05/08 12:15:18;;;;;;;;;;;;;;;31.80;25.02;99601.25;5107280;28;19912;-42
2023/05/08 12:17:44;;;;;;;;;;;;;;;31.81;25.38;99600.09;5089262;28;20005;-42
2023/05/08 12:20:11;;;;;;;;;;;;;;;30.66;26.51;99602.84;5089147;28;19927;-42
2023/05/08 12:22:37;;;;;;;;;;;;;;;30.50;26.58;99599.16;5089122;28;20226;-41
2023/05/08 12:25:04;;;;;;;;;;;;;;;30.43;26.58;99602.47;5088755;28;19919;-43
2023/05/08 12:27:29;;;;;;;;;;;;;;;30.80;25.90;99591.50;5090151;28;19931;-41
2023/05/08 12:29:56;;;;;;;;;;;;;;;31.50;25.66;99588.63;5090364;28;20358;-42
2023/05/08 12:32:21;;;;;;;;;;;;;;;32.05;24.95;99590.97;5090019;28;19981;-43
2023/05/08 12:34:46;;;;;;;;;;;;;;;29.28;27.71;99591.97;5089929;28;20331;-43
2023/05/08 12:37:21;;;;;;;;;;;;;;;29.04;28.57;99585.94;5090448;28;19912;-42
2023/05/08 12:39:47;;;;;;;;;;;;;;;28.44;29.27;99592.47;5090008;28;19912;-41
2023/05/08 12:42:12;;;;;;;;;;;;;;;29.24;28.51;99591.81;5089718;28;19923;-42
2023/05/08 12:44:37;;;;;;;;;;;;;;;28.95;29.02;99589.88;5096630;28;20451;-42
2023/05/08 12:47:03;;;;;;;;;;;;;;;27.97;30.33;99590.47;5110036;28;19912;-43